This is the latest recevied weather packets stored in our database for station/object OK1KZE-6. If no packets are shown the sender has not sent any weather packets the latest 10 day(s).
| Time | Temp. | Humidity | Pressure | Rain* | Wind** | Luminosity | Snow |
|---|---|---|---|---|---|---|---|
| 1777894808 | 20.56° C | 43% | 1016.1 hPa | - | - | - | - |
| 1777894508 | 20.56° C | 42% | 1016.4 hPa | - | - | - | - |
| 1777894207 | -1.11° C | 100% | 1016.5 hPa | - | - | - | - |
| 1777893908 | -1.11° C | 100% | 1016.4 hPa | - | - | - | - |
| 1777893608 | -1.11° C | 100% | 1016.5 hPa | - | - | - | - |
| 1777893308 | 19.44° C | 46% | 1016.6 hPa | - | - | - | - |
| 1777893008 | 19.44° C | 46% | 1016.6 hPa | - | - | - | - |
| 1777892708 | 19.44° C | 46% | 1016.8 hPa | - | - | - | - |
| 1777892409 | 19.44° C | 48% | 1016.7 hPa | - | - | - | - |
| 1777892107 | 19.44° C | 48% | 1016.9 hPa | - | - | - | - |
| 1777891808 | 19.44° C | 46% | 1016.8 hPa | - | - | - | - |
| 1777891508 | 19.44° C | 47% | 1017 hPa | - | - | - | - |
| 1777891208 | 18.89° C | 47% | 1016.8 hPa | - | - | - | - |
| 1777890907 | 18.89° C | 47% | 1017 hPa | - | - | - | - |
| 1777890608 | -1.11° C | 100% | 1016.9 hPa | - | - | - | - |
| 1777890307 | -1.11° C | 100% | 1017.1 hPa | - | - | - | - |
| 1777890007 | 18.89° C | 48% | 1017 hPa | - | - | - | - |
| 1777889707 | 18.89° C | 48% | 1017.2 hPa | - | - | - | - |
| 1777889409 | 18.89° C | 48% | 1017.2 hPa | - | - | - | - |
| 1777889109 | 18.89° C | 47% | 1017.1 hPa | - | - | - | - |
| 1777888808 | 18.33° C | 48% | 1017.3 hPa | - | - | - | - |
| 1777888507 | 18.33° C | 47% | 1017.2 hPa | - | - | - | - |
| 1777887907 | 18.33° C | 48% | 1017.3 hPa | - | - | - | - |
| 1777887607 | 18.33° C | 48% | 1017.2 hPa | - | - | - | - |
| 1777887309 | 17.78° C | 48% | 1017.3 hPa | - | - | - | - |
* Rain since midnight (hover to see other rain measurements)
** Current wind speed in m/s (hover to see current wind gust speed)